PWSweather.com
Personal Weather Stations
Station Observations
KMAMEDFI2
Medfield, MA 02052

Medfield, MA 02052

Lat: 42.1900822, Lon: -71.3296889

Elevation: 138

Station Type: Rainwise WS MK-III

http://www.medfieldweather.com

High Low Average
Temperature 5.1°F-14.9°C -1.3°F-18.5°C 2.4°F-16.4°C
Dew Point 0.4°F-17.6°C -7.8°F-22.1°C -4.4°F-20.2°C
Winds 13.8 mph 22.2 kmh 1.2 mph 1.9 kmh 7.0 mph W11.3 kmh W
Wind Gusts 25.3 mph40.7 kmh 3.5 mph5.6 kmh 11.0 mph17.7 kmh
Humidity 83% 60% 73%
Pressure 30.08 in1018.6 mb 29.49 in998.6 mb -
Precipitation 0.00 in0.0 mm - -
Hour Temp Dew Point Humidity Winds Wind Gusts Pressure Precip Precip Rate Daily Precip Total
12:00 AM 6.6°F-14.1°C 3.1°F-16.1°C 85% 4.6 mph W7.4 kmh W 5.8 mph9.3 kmh 29.47 in998.0 mb - 0.00 in0.0 mm 0.31 in7.9 mm
12:10 AM 6.2°F-14.3°C 2.2°F-16.6°C 83% 4.6 mph W7.4 kmh W 8.1 mph13.0 kmh 29.47 in998.0 mb - 0.00 in0.0 mm 0.31 in7.9 mm
12:20 AM 5.8°F-14.6°C 1.8°F-16.8°C 83% 4.6 mph WNW7.4 kmh WNW 5.8 mph9.3 kmh 29.48 in998.3 mb - 0.00 in0.0 mm 0.31 in7.9 mm
12:30 AM 5.5°F-14.7°C 1.2°F-17.1°C 82% 6.9 mph NW11.1 kmh NW 8.1 mph13.0 kmh 29.48 in998.3 mb - 0.00 in0.0 mm 0.31 in7.9 mm
12:40 AM 5.1°F-14.9°C 1.1°F-17.2°C 83% 6.9 mph W11.1 kmh W 9.2 mph14.8 kmh 29.49 in998.6 mb - 0.00 in0.0 mm 0.31 in7.9 mm
12:50 AM 4.8°F-15.1°C 0.8°F-17.3°C 83% 5.8 mph E9.3 kmh E 8.1 mph13.0 kmh 29.49 in998.6 mb - 0.00 in0.0 mm 0.31 in7.9 mm
01:00 AM 4.6°F-15.2°C -0.2°F-17.9°C 80% 10.4 mph N16.7 kmh N 15.0 mph24.1 kmh 29.49 in998.6 mb - 0.00 in0.0 mm 0.00 in0.0 mm
01:10 AM 4.4°F-15.3°C 0.4°F-17.6°C 83% 2.3 mph W3.7 kmh W 11.5 mph18.5 kmh 29.50 in999.0 mb - 0.00 in0.0 mm 0.00 in0.0 mm
01:20 AM 4.2°F-15.4°C -0.3°F-17.9°C 81% 3.5 mph W5.6 kmh W 5.8 mph9.3 kmh 29.50 in999.0 mb - 0.00 in0.0 mm 0.00 in0.0 mm
01:30 AM 4.1°F-15.5°C -0.4°F-18.0°C 81% 4.6 mph W7.4 kmh W 8.1 mph13.0 kmh 29.50 in999.0 mb - 0.00 in0.0 mm 0.00 in0.0 mm
01:40 AM 4.0°F-15.6°C -1.1°F-18.4°C 79% 4.6 mph W7.4 kmh W 9.2 mph14.8 kmh 29.50 in999.0 mb - 0.00 in0.0 mm 0.00 in0.0 mm
01:50 AM 3.9°F-15.6°C -0.9°F-18.3°C 80% 5.8 mph NW9.3 kmh NW 8.1 mph13.0 kmh 29.49 in998.6 mb - 0.00 in0.0 mm 0.00 in0.0 mm
02:00 AM 3.8°F-15.7°C -1.3°F-18.5°C 79% 8.1 mph W13.0 kmh W 11.5 mph18.5 kmh 29.50 in999.0 mb - 0.00 in0.0 mm 0.00 in0.0 mm
02:10 AM 3.6°F-15.8°C -1.4°F-18.6°C 79% 4.6 mph NW7.4 kmh NW 5.8 mph9.3 kmh 29.51 in999.3 mb - 0.00 in0.0 mm 0.00 in0.0 mm
02:20 AM 3.6°F-15.8°C -1.7°F-18.7°C 78% 5.8 mph NNW9.3 kmh NNW 6.9 mph11.1 kmh 29.51 in999.3 mb - 0.00 in0.0 mm 0.00 in0.0 mm
02:30 AM 3.4°F-15.9°C -1.7°F-18.7°C 79% 4.6 mph WSW7.4 kmh WSW 10.4 mph16.7 kmh 29.50 in999.0 mb - 0.00 in0.0 mm 0.00 in0.0 mm
02:40 AM 3.3°F-15.9°C -1.7°F-18.7°C 79% 6.9 mph NW11.1 kmh NW 10.4 mph16.7 kmh 29.51 in999.3 mb - 0.00 in0.0 mm 0.00 in0.0 mm
02:50 AM 3.2°F-16.0°C -1.6°F-18.7°C 80% 3.5 mph WNW5.6 kmh WNW 5.8 mph9.3 kmh 29.51 in999.3 mb - 0.00 in0.0 mm 0.00 in0.0 mm
03:00 AM 3.1°F-16.1°C -1.9°F-18.8°C 79% 5.8 mph WNW9.3 kmh WNW 8.1 mph13.0 kmh 29.52 in999.7 mb - 0.00 in0.0 mm 0.00 in0.0 mm
03:10 AM 3.0°F-16.1°C -2.0°F-18.9°C 79% 8.1 mph WSW13.0 kmh WSW 15.0 mph24.1 kmh 29.53 in1000.0 mb - 0.00 in0.0 mm 0.00 in0.0 mm
03:20 AM 3.0°F-16.1°C -2.0°F-18.9°C 79% 8.1 mph W13.0 kmh W 10.4 mph16.7 kmh 29.53 in1000.0 mb - 0.00 in0.0 mm 0.00 in0.0 mm
03:30 AM 2.9°F-16.2°C -2.7°F-19.3°C 77% 4.6 mph NW7.4 kmh NW 6.9 mph11.1 kmh 29.53 in1000.0 mb - 0.00 in0.0 mm 0.00 in0.0 mm
03:40 AM 2.8°F-16.2°C -2.5°F-19.2°C 78% 2.3 mph W3.7 kmh W 11.5 mph18.5 kmh 29.53 in1000.0 mb - 0.00 in0.0 mm 0.00 in0.0 mm
03:50 AM 2.7°F-16.3°C -2.3°F-19.1°C 79% 8.1 mph WSW13.0 kmh WSW 15.0 mph24.1 kmh 29.53 in1000.0 mb - 0.00 in0.0 mm 0.00 in0.0 mm
04:00 AM 2.6°F-16.3°C -2.7°F-19.3°C 78% 3.5 mph W5.6 kmh W 10.4 mph16.7 kmh 29.53 in1000.0 mb - 0.00 in0.0 mm 0.00 in0.0 mm
04:10 AM 2.4°F-16.4°C -2.4°F-19.1°C 80% 4.6 mph W7.4 kmh W 11.5 mph18.5 kmh 29.53 in1000.0 mb - 0.00 in0.0 mm 0.00 in0.0 mm
04:20 AM 2.4°F-16.4°C -2.9°F-19.4°C 78% 5.8 mph WNW9.3 kmh WNW 13.8 mph22.2 kmh 29.53 in1000.0 mb - 0.00 in0.0 mm 0.00 in0.0 mm
04:30 AM 2.3°F-16.5°C -3.0°F-19.4°C 78% 9.2 mph W14.8 kmh W 15.0 mph24.1 kmh 29.53 in1000.0 mb - 0.00 in0.0 mm 0.00 in0.0 mm
04:40 AM 2.1°F-16.6°C -2.7°F-19.3°C 80% 9.2 mph NW14.8 kmh NW 11.5 mph18.5 kmh 29.54 in1000.3 mb - 0.00 in0.0 mm 0.00 in0.0 mm
04:50 AM 1.9°F-16.7°C -3.4°F-19.7°C 78% 6.9 mph WNW11.1 kmh WNW 9.2 mph14.8 kmh 29.54 in1000.3 mb - 0.00 in0.0 mm 0.00 in0.0 mm
05:00 AM 1.8°F-16.8°C -3.7°F-19.8°C 77% 6.9 mph W11.1 kmh W 18.4 mph29.6 kmh 29.54 in1000.3 mb - 0.00 in0.0 mm 0.00 in0.0 mm
05:10 AM 1.6°F-16.9°C -3.7°F-19.8°C 78% 8.1 mph W13.0 kmh W 8.1 mph13.0 kmh 29.55 in1000.7 mb - 0.00 in0.0 mm 0.00 in0.0 mm
05:20 AM 1.5°F-16.9°C -3.8°F-19.9°C 78% 4.6 mph WSW7.4 kmh WSW 6.9 mph11.1 kmh 29.55 in1000.7 mb - 0.00 in0.0 mm 0.00 in0.0 mm
05:30 AM 1.3°F-17.1°C -4.2°F-20.1°C 77% 2.3 mph WSW3.7 kmh WSW 5.8 mph9.3 kmh 29.55 in1000.7 mb - 0.00 in0.0 mm 0.00 in0.0 mm
05:40 AM 1.1°F-17.2°C -4.7°F-20.4°C 76% 11.5 mph WSW18.5 kmh WSW 13.8 mph22.2 kmh 29.56 in1001.0 mb - 0.00 in0.0 mm 0.00 in0.0 mm
05:50 AM 0.9°F-17.3°C -4.6°F-20.3°C 77% 2.3 mph SW3.7 kmh SW 8.1 mph13.0 kmh 29.56 in1001.0 mb - 0.00 in0.0 mm 0.00 in0.0 mm
06:00 AM 0.8°F-17.3°C -5.0°F-20.6°C 76% 5.8 mph W9.3 kmh W 11.5 mph18.5 kmh 29.56 in1001.0 mb - 0.00 in0.0 mm 0.00 in0.0 mm
06:10 AM 0.6°F-17.4°C -4.9°F-20.5°C 77% 5.8 mph WNW9.3 kmh WNW 16.1 mph25.9 kmh 29.56 in1001.0 mb - 0.00 in0.0 mm 0.00 in0.0 mm
06:20 AM 0.5°F-17.5°C -5.3°F-20.7°C 76% 6.9 mph W11.1 kmh W 9.2 mph14.8 kmh 29.57 in1001.4 mb - 0.00 in0.0 mm 0.00 in0.0 mm
06:30 AM 0.3°F-17.6°C -5.2°F-20.7°C 77% 3.5 mph W5.6 kmh W 3.5 mph5.6 kmh 29.58 in1001.7 mb - 0.00 in0.0 mm 0.00 in0.0 mm
06:40 AM -0.1°F-17.8°C -5.9°F-21.1°C 76% 8.1 mph W13.0 kmh W 15.0 mph24.1 kmh 29.59 in1002.0 mb - 0.00 in0.0 mm 0.00 in0.0 mm
06:50 AM -0.1°F-17.8°C -5.3°F-20.7°C 78% 3.5 mph W5.6 kmh W 6.9 mph11.1 kmh 29.60 in1002.4 mb - 0.00 in0.0 mm 0.00 in0.0 mm
07:00 AM -0.4°F-18.0°C -6.2°F-21.2°C 76% 8.1 mph NW13.0 kmh NW 11.5 mph18.5 kmh 29.60 in1002.4 mb - 0.00 in0.0 mm 0.00 in0.0 mm
07:10 AM -0.5°F-18.1°C -6.0°F-21.1°C 77% 6.9 mph WSW11.1 kmh WSW 11.5 mph18.5 kmh 29.61 in1002.7 mb - 0.00 in0.0 mm 0.00 in0.0 mm
07:20 AM -0.7°F-18.2°C -5.9°F-21.1°C 78% 1.2 mph SW1.9 kmh SW 5.8 mph9.3 kmh 29.61 in1002.7 mb - 0.00 in0.0 mm 0.00 in0.0 mm
07:30 AM -0.9°F-18.3°C -6.1°F-21.2°C 78% 3.5 mph SW5.6 kmh SW 8.1 mph13.0 kmh 29.61 in1002.7 mb - 0.00 in0.0 mm 0.00 in0.0 mm
07:40 AM -1.1°F-18.4°C -6.6°F-21.4°C 77% 5.8 mph NW9.3 kmh NW 8.1 mph13.0 kmh 29.62 in1003.0 mb - 0.00 in0.0 mm 0.00 in0.0 mm
07:50 AM -1.1°F-18.4°C -6.6°F-21.4°C 77% 6.9 mph NW11.1 kmh NW 15.0 mph24.1 kmh 29.62 in1003.0 mb - 0.00 in0.0 mm 0.00 in0.0 mm
08:00 AM -1.2°F-18.4°C -6.7°F-21.5°C 77% 6.9 mph WNW11.1 kmh WNW 5.8 mph9.3 kmh 29.63 in1003.4 mb - 0.00 in0.0 mm 0.00 in0.0 mm
08:10 AM -1.3°F-18.5°C -6.8°F-21.6°C 77% 5.8 mph W9.3 kmh W 8.1 mph13.0 kmh 29.63 in1003.4 mb - 0.00 in0.0 mm 0.00 in0.0 mm
08:20 AM -1.3°F-18.5°C -6.8°F-21.6°C 77% 2.3 mph W3.7 kmh W 6.9 mph11.1 kmh 29.63 in1003.4 mb - 0.00 in0.0 mm 0.00 in0.0 mm
08:30 AM -1.2°F-18.4°C -6.9°F-21.6°C 76% 9.2 mph W14.8 kmh W 11.5 mph18.5 kmh 29.64 in1003.7 mb - 0.00 in0.0 mm 0.00 in0.0 mm
08:40 AM -1.1°F-18.4°C -7.1°F-21.7°C 75% 6.9 mph W11.1 kmh W 13.8 mph22.2 kmh 29.65 in1004.1 mb - 0.00 in0.0 mm 0.00 in0.0 mm
08:50 AM -1.1°F-18.4°C -6.8°F-21.6°C 76% 3.5 mph NW5.6 kmh NW 8.1 mph13.0 kmh 29.66 in1004.4 mb - 0.00 in0.0 mm 0.00 in0.0 mm
09:00 AM -1.1°F-18.4°C -6.8°F-21.6°C 76% 5.8 mph WSW9.3 kmh WSW 13.8 mph22.2 kmh 29.66 in1004.4 mb - 0.00 in0.0 mm 0.00 in0.0 mm
09:10 AM -1.1°F-18.4°C -6.8°F-21.6°C 76% 8.1 mph W13.0 kmh W 13.8 mph22.2 kmh 29.66 in1004.4 mb - 0.00 in0.0 mm 0.00 in0.0 mm
09:20 AM -0.9°F-18.3°C -6.7°F-21.5°C 76% 10.4 mph WNW16.7 kmh WNW 15.0 mph24.1 kmh 29.67 in1004.7 mb - 0.00 in0.0 mm 0.00 in0.0 mm
09:30 AM -0.9°F-18.3°C -6.9°F-21.6°C 75% 9.2 mph WSW14.8 kmh WSW 13.8 mph22.2 kmh 29.68 in1005.1 mb - 0.00 in0.0 mm 0.00 in0.0 mm
09:40 AM -0.9°F-18.3°C -7.2°F-21.8°C 74% 6.9 mph W11.1 kmh W 9.2 mph14.8 kmh 29.69 in1005.4 mb - 0.00 in0.0 mm 0.00 in0.0 mm
09:50 AM -0.5°F-18.1°C -7.7°F-22.1°C 71% 12.7 mph W20.4 kmh W 15.0 mph24.1 kmh 29.69 in1005.4 mb - 0.00 in0.0 mm 0.00 in0.0 mm
10:00 AM -0.4°F-18.0°C -7.6°F-22.0°C 71% 4.6 mph N7.4 kmh N 10.4 mph16.7 kmh 29.70 in1005.8 mb - 0.00 in0.0 mm 0.00 in0.0 mm
10:10 AM -0.3°F-17.9°C -7.8°F-22.1°C 70% 8.1 mph W13.0 kmh W 11.5 mph18.5 kmh 29.70 in1005.8 mb - 0.00 in0.0 mm 0.00 in0.0 mm
10:20 AM -0.1°F-17.8°C -7.3°F-21.8°C 71% 10.4 mph WNW16.7 kmh WNW 15.0 mph24.1 kmh 29.71 in1006.1 mb - 0.00 in0.0 mm 0.00 in0.0 mm
10:30 AM 0.2°F-17.7°C -6.7°F-21.5°C 72% 6.9 mph WSW11.1 kmh WSW 8.1 mph13.0 kmh 29.72 in1006.4 mb - 0.00 in0.0 mm 0.00 in0.0 mm
10:40 AM 0.2°F-17.7°C -7.3°F-21.8°C 70% 8.1 mph W13.0 kmh W 9.2 mph14.8 kmh 29.72 in1006.4 mb - 0.00 in0.0 mm 0.00 in0.0 mm
10:50 AM 0.3°F-17.6°C -7.8°F-22.1°C 68% 6.9 mph W11.1 kmh W 8.1 mph13.0 kmh 29.72 in1006.4 mb - 0.00 in0.0 mm 0.00 in0.0 mm
11:00 AM 0.7°F-17.4°C -7.1°F-21.7°C 69% 10.4 mph W16.7 kmh W 16.1 mph25.9 kmh 29.72 in1006.4 mb - 0.00 in0.0 mm 0.00 in0.0 mm
11:10 AM 0.9°F-17.3°C -7.2°F-21.8°C 68% 11.5 mph WSW18.5 kmh WSW 18.4 mph29.6 kmh 29.73 in1006.8 mb - 0.00 in0.0 mm 0.00 in0.0 mm
11:20 AM 1.4°F-17.0°C -6.1°F-21.2°C 70% 10.4 mph W16.7 kmh W 18.4 mph29.6 kmh 29.73 in1006.8 mb - 0.00 in0.0 mm 0.00 in0.0 mm
11:30 AM 1.6°F-16.9°C -6.5°F-21.4°C 68% 5.8 mph WSW9.3 kmh WSW 18.4 mph29.6 kmh 29.73 in1006.8 mb - 0.00 in0.0 mm 0.00 in0.0 mm
11:40 AM 2.3°F-16.5°C -5.6°F-20.9°C 69% 8.1 mph NW13.0 kmh NW 16.1 mph25.9 kmh 29.74 in1007.1 mb - 0.00 in0.0 mm 0.00 in0.0 mm
11:50 AM 2.7°F-16.3°C -4.9°F-20.5°C 70% 2.3 mph WNW3.7 kmh WNW 8.1 mph13.0 kmh 29.74 in1007.1 mb - 0.00 in0.0 mm 0.00 in0.0 mm
12:00 PM 2.9°F-16.2°C -5.6°F-20.9°C 67% 8.1 mph WSW13.0 kmh WSW 8.1 mph13.0 kmh 29.75 in1007.5 mb - 0.00 in0.0 mm 0.00 in0.0 mm
12:10 PM 2.9°F-16.2°C -5.6°F-20.9°C 67% 9.2 mph W14.8 kmh W 10.4 mph16.7 kmh 29.74 in1007.1 mb - 0.00 in0.0 mm 0.00 in0.0 mm
12:20 PM 2.9°F-16.2°C -5.9°F-21.1°C 66% 8.1 mph W13.0 kmh W 8.1 mph13.0 kmh 29.74 in1007.1 mb - 0.00 in0.0 mm 0.00 in0.0 mm
12:30 PM 2.9°F-16.2°C -5.9°F-21.1°C 66% 8.1 mph WSW13.0 kmh WSW 5.8 mph9.3 kmh 29.73 in1006.8 mb - 0.00 in0.0 mm 0.00 in0.0 mm
12:40 PM 3.9°F-15.6°C -3.7°F-19.8°C 70% 3.5 mph NW5.6 kmh NW 6.9 mph11.1 kmh 29.73 in1006.8 mb - 0.00 in0.0 mm 0.00 in0.0 mm
12:50 PM 3.9°F-15.6°C -4.3°F-20.2°C 68% 9.2 mph WSW14.8 kmh WSW 15.0 mph24.1 kmh 29.73 in1006.8 mb - 0.00 in0.0 mm 0.00 in0.0 mm
01:00 PM 4.3°F-15.4°C -4.0°F-20.0°C 68% 8.1 mph W13.0 kmh W 16.1 mph25.9 kmh 29.73 in1006.8 mb - 0.00 in0.0 mm 0.00 in0.0 mm
01:10 PM 4.8°F-15.1°C -3.8°F-19.9°C 67% 6.9 mph W11.1 kmh W 9.2 mph14.8 kmh 29.73 in1006.8 mb - 0.00 in0.0 mm 0.00 in0.0 mm
01:20 PM 5.1°F-14.9°C -2.9°F-19.4°C 69% 4.6 mph WSW7.4 kmh WSW 15.0 mph24.1 kmh 29.73 in1006.8 mb - 0.00 in0.0 mm 0.00 in0.0 mm
01:30 PM 5.1°F-14.9°C -2.3°F-19.1°C 71% 5.8 mph W9.3 kmh W 8.1 mph13.0 kmh 29.73 in1006.8 mb - 0.00 in0.0 mm 0.00 in0.0 mm
01:40 PM 4.9°F-15.1°C -2.7°F-19.3°C 70% 9.2 mph W14.8 kmh W 16.1 mph25.9 kmh 29.73 in1006.8 mb - 0.00 in0.0 mm 0.00 in0.0 mm
01:50 PM 4.8°F-15.1°C -2.5°F-19.2°C 71% 13.8 mph W22.2 kmh W 25.3 mph40.7 kmh 29.73 in1006.8 mb - 0.00 in0.0 mm 0.00 in0.0 mm
02:00 PM 4.6°F-15.2°C -2.2°F-19.0°C 73% 6.9 mph NW11.1 kmh NW 9.2 mph14.8 kmh 29.73 in1006.8 mb - 0.00 in0.0 mm 0.00 in0.0 mm
02:10 PM 4.6°F-15.2°C -1.9°F-18.8°C 74% 9.2 mph WSW14.8 kmh WSW 11.5 mph18.5 kmh 29.74 in1007.1 mb - 0.00 in0.0 mm 0.00 in0.0 mm
02:20 PM 4.6°F-15.2°C -1.6°F-18.7°C 75% 10.4 mph W16.7 kmh W 11.5 mph18.5 kmh 29.74 in1007.1 mb - 0.00 in0.0 mm 0.00 in0.0 mm
02:30 PM 4.9°F-15.1°C -0.5°F-18.1°C 78% 4.6 mph WSW7.4 kmh WSW 9.2 mph14.8 kmh 29.74 in1007.1 mb - 0.00 in0.0 mm 0.00 in0.0 mm
02:40 PM 4.3°F-15.4°C -1.9°F-18.8°C 75% 9.2 mph WSW14.8 kmh WSW 11.5 mph18.5 kmh 29.74 in1007.1 mb - 0.00 in0.0 mm 0.00 in0.0 mm
02:50 PM 4.3°F-15.4°C -1.9°F-18.8°C 75% 8.1 mph NW13.0 kmh NW 11.5 mph18.5 kmh 29.74 in1007.1 mb - 0.00 in0.0 mm 0.00 in0.0 mm
03:00 PM 4.6°F-15.2°C -2.2°F-19.0°C 73% 6.9 mph WSW11.1 kmh WSW 8.1 mph13.0 kmh 29.74 in1007.1 mb - 0.00 in0.0 mm 0.00 in0.0 mm
03:10 PM 4.4°F-15.3°C -2.3°F-19.1°C 73% 9.2 mph WSW14.8 kmh WSW 11.5 mph18.5 kmh 29.75 in1007.5 mb - 0.00 in0.0 mm 0.00 in0.0 mm
03:20 PM 4.2°F-15.4°C -2.0°F-18.9°C 75% 9.2 mph W14.8 kmh W 17.3 mph27.8 kmh 29.75 in1007.5 mb - 0.00 in0.0 mm 0.00 in0.0 mm
03:30 PM 3.5°F-15.8°C -1.5°F-18.6°C 79% 6.9 mph W11.1 kmh W 15.0 mph24.1 kmh 29.76 in1007.8 mb - 0.00 in0.0 mm 0.00 in0.0 mm
03:40 PM 3.1°F-16.1°C -1.7°F-18.7°C 80% 4.6 mph WSW7.4 kmh WSW 9.2 mph14.8 kmh 29.76 in1007.8 mb - 0.00 in0.0 mm 0.00 in0.0 mm
03:50 PM 2.9°F-16.2°C -3.0°F-19.4°C 76% 6.9 mph W11.1 kmh W 9.2 mph14.8 kmh 29.77 in1008.1 mb - 0.00 in0.0 mm 0.00 in0.0 mm
04:00 PM 2.9°F-16.2°C -3.2°F-19.6°C 75% 5.8 mph SW9.3 kmh SW 10.4 mph16.7 kmh 29.77 in1008.1 mb - 0.00 in0.0 mm 0.00 in0.0 mm
04:10 PM 2.9°F-16.2°C -3.2°F-19.6°C 75% 5.8 mph W9.3 kmh W 11.5 mph18.5 kmh 29.77 in1008.1 mb - 0.00 in0.0 mm 0.00 in0.0 mm
04:20 PM 2.9°F-16.2°C -3.8°F-19.9°C 73% 9.2 mph WNW14.8 kmh WNW 16.1 mph25.9 kmh 29.78 in1008.5 mb - 0.00 in0.0 mm 0.00 in0.0 mm
04:30 PM 3.0°F-16.1°C -4.0°F-20.0°C 72% 3.5 mph WSW5.6 kmh WSW 5.8 mph9.3 kmh 29.79 in1008.8 mb - 0.00 in0.0 mm 0.00 in0.0 mm
04:40 PM 3.1°F-16.1°C -3.3°F-19.6°C 74% 6.9 mph WSW11.1 kmh WSW 9.2 mph14.8 kmh 29.79 in1008.8 mb - 0.00 in0.0 mm 0.00 in0.0 mm
04:50 PM 2.9°F-16.2°C -4.4°F-20.2°C 71% 9.2 mph W14.8 kmh W 15.0 mph24.1 kmh 29.80 in1009.1 mb - 0.00 in0.0 mm 0.00 in0.0 mm
05:00 PM 2.8°F-16.2°C -4.2°F-20.1°C 72% 2.3 mph W3.7 kmh W 9.2 mph14.8 kmh 29.81 in1009.5 mb - 0.00 in0.0 mm 0.00 in0.0 mm
05:10 PM 2.4°F-16.4°C -4.3°F-20.2°C 73% 3.5 mph WNW5.6 kmh WNW 5.8 mph9.3 kmh 29.81 in1009.5 mb - 0.00 in0.0 mm 0.00 in0.0 mm
05:20 PM 2.3°F-16.5°C -5.0°F-20.6°C 71% 6.9 mph NW11.1 kmh NW 16.1 mph25.9 kmh 29.81 in1009.5 mb - 0.00 in0.0 mm 0.00 in0.0 mm
05:30 PM 2.2°F-16.6°C -5.1°F-20.6°C 71% 10.4 mph W16.7 kmh W 17.3 mph27.8 kmh 29.83 in1010.2 mb - 0.00 in0.0 mm 0.00 in0.0 mm
05:40 PM 2.2°F-16.6°C -5.1°F-20.6°C 71% 6.9 mph SW11.1 kmh SW 8.1 mph13.0 kmh 29.83 in1010.2 mb - 0.00 in0.0 mm 0.00 in0.0 mm
05:50 PM 2.2°F-16.6°C -5.3°F-20.7°C 70% 5.8 mph W9.3 kmh W 3.5 mph5.6 kmh 29.83 in1010.2 mb - 0.00 in0.0 mm 0.00 in0.0 mm
06:00 PM 2.1°F-16.6°C -5.4°F-20.8°C 70% 4.6 mph WNW7.4 kmh WNW 3.5 mph5.6 kmh 29.84 in1010.5 mb - 0.00 in0.0 mm 0.00 in0.0 mm
06:10 PM 2.2°F-16.6°C -5.1°F-20.6°C 71% 8.1 mph WNW13.0 kmh WNW 9.2 mph14.8 kmh 29.84 in1010.5 mb - 0.00 in0.0 mm 0.00 in0.0 mm
06:20 PM 2.4°F-16.4°C -5.2°F-20.7°C 70% 6.9 mph W11.1 kmh W 10.4 mph16.7 kmh 29.85 in1010.8 mb - 0.00 in0.0 mm 0.00 in0.0 mm
06:30 PM 2.6°F-16.3°C -4.7°F-20.4°C 71% 6.9 mph NW11.1 kmh NW 9.2 mph14.8 kmh 29.85 in1010.8 mb - 0.00 in0.0 mm 0.00 in0.0 mm
06:40 PM 2.8°F-16.2°C -4.2°F-20.1°C 72% 5.8 mph WNW9.3 kmh WNW 11.5 mph18.5 kmh 29.87 in1011.5 mb - 0.00 in0.0 mm 0.00 in0.0 mm
06:50 PM 2.9°F-16.2°C -3.8°F-19.9°C 73% 6.9 mph NW11.1 kmh NW 9.2 mph14.8 kmh 29.87 in1011.5 mb - 0.00 in0.0 mm 0.00 in0.0 mm
07:00 PM 3.1°F-16.1°C -3.0°F-19.4°C 75% 4.6 mph WSW7.4 kmh WSW 15.0 mph24.1 kmh 29.87 in1011.5 mb - 0.00 in0.0 mm 0.00 in0.0 mm
07:10 PM 3.1°F-16.1°C -3.0°F-19.4°C 75% 3.5 mph W5.6 kmh W 9.2 mph14.8 kmh 29.89 in1012.2 mb - 0.00 in0.0 mm 0.00 in0.0 mm
07:20 PM 3.1°F-16.1°C -2.7°F-19.3°C 76% 3.5 mph NW5.6 kmh NW 13.8 mph22.2 kmh 29.89 in1012.2 mb - 0.00 in0.0 mm 0.00 in0.0 mm
07:30 PM 3.2°F-16.0°C -2.4°F-19.1°C 77% 3.5 mph W5.6 kmh W 6.9 mph11.1 kmh 29.90 in1012.5 mb - 0.00 in0.0 mm 0.00 in0.0 mm
07:40 PM 3.3°F-15.9°C -2.3°F-19.1°C 77% 6.9 mph WNW11.1 kmh WNW 15.0 mph24.1 kmh 29.90 in1012.5 mb - 0.00 in0.0 mm 0.00 in0.0 mm
07:50 PM 3.4°F-15.9°C -2.2°F-19.0°C 77% 5.8 mph W9.3 kmh W 15.0 mph24.1 kmh 29.91 in1012.9 mb - 0.00 in0.0 mm 0.00 in0.0 mm
08:00 PM 3.6°F-15.8°C -2.9°F-19.4°C 74% 8.1 mph WNW13.0 kmh WNW 16.1 mph25.9 kmh 29.92 in1013.2 mb - 0.00 in0.0 mm 0.00 in0.0 mm
08:10 PM 3.7°F-15.7°C -3.6°F-19.8°C 71% 5.8 mph W9.3 kmh W 9.2 mph14.8 kmh 29.92 in1013.2 mb - 0.00 in0.0 mm 0.00 in0.0 mm
08:20 PM 3.8°F-15.7°C -4.1°F-20.1°C 69% 6.9 mph W11.1 kmh W 10.4 mph16.7 kmh 29.93 in1013.5 mb - 0.00 in0.0 mm 0.00 in0.0 mm
08:30 PM 3.9°F-15.6°C -4.6°F-20.3°C 67% 9.2 mph WNW14.8 kmh WNW 13.8 mph22.2 kmh 29.94 in1013.9 mb - 0.00 in0.0 mm 0.00 in0.0 mm
08:40 PM 3.9°F-15.6°C -4.3°F-20.2°C 68% 4.6 mph WSW7.4 kmh WSW 15.0 mph24.1 kmh 29.94 in1013.9 mb - 0.00 in0.0 mm 0.00 in0.0 mm
08:50 PM 3.9°F-15.6°C -4.3°F-20.2°C 68% 13.8 mph W22.2 kmh W 16.1 mph25.9 kmh 29.95 in1014.2 mb - 0.00 in0.0 mm 0.00 in0.0 mm
09:00 PM 3.9°F-15.6°C -4.0°F-20.0°C 69% 8.1 mph W13.0 kmh W 11.5 mph18.5 kmh 29.95 in1014.2 mb - 0.00 in0.0 mm 0.00 in0.0 mm
09:10 PM 3.9°F-15.6°C -3.7°F-19.8°C 70% 3.5 mph SW5.6 kmh SW 8.1 mph13.0 kmh 29.96 in1014.6 mb - 0.00 in0.0 mm 0.00 in0.0 mm
09:20 PM 3.9°F-15.6°C -4.0°F-20.0°C 69% 3.5 mph WNW5.6 kmh WNW 8.1 mph13.0 kmh 29.97 in1014.9 mb - 0.00 in0.0 mm 0.00 in0.0 mm
09:30 PM 3.9°F-15.6°C -4.9°F-20.5°C 66% 8.1 mph W13.0 kmh W 16.1 mph25.9 kmh 29.97 in1014.9 mb - 0.00 in0.0 mm 0.00 in0.0 mm
09:40 PM 3.9°F-15.6°C -5.0°F-20.6°C 66% 2.3 mph SW3.7 kmh SW 5.8 mph9.3 kmh 29.97 in1014.9 mb - 0.00 in0.0 mm 0.00 in0.0 mm
09:50 PM 3.6°F-15.8°C -5.2°F-20.7°C 66% 5.8 mph W9.3 kmh W 10.4 mph16.7 kmh 29.99 in1015.6 mb - 0.00 in0.0 mm 0.00 in0.0 mm
10:00 PM 3.4°F-15.9°C -5.1°F-20.6°C 67% 4.6 mph WNW7.4 kmh WNW 11.5 mph18.5 kmh 29.99 in1015.6 mb - 0.00 in0.0 mm 0.00 in0.0 mm
10:10 PM 3.3°F-15.9°C -4.9°F-20.5°C 68% 8.1 mph W13.0 kmh W 8.1 mph13.0 kmh 30.00 in1015.9 mb - 0.00 in0.0 mm 0.00 in0.0 mm
10:20 PM 3.1°F-16.1°C -4.8°F-20.4°C 69% 4.6 mph WNW7.4 kmh WNW 9.2 mph14.8 kmh 30.00 in1015.9 mb - 0.00 in0.0 mm 0.00 in0.0 mm
10:30 PM 2.9°F-16.2°C -5.3°F-20.7°C 68% 6.9 mph W11.1 kmh W 9.2 mph14.8 kmh 30.00 in1015.9 mb - 0.00 in0.0 mm 0.00 in0.0 mm
10:40 PM 2.8°F-16.2°C -5.1°F-20.6°C 69% 6.9 mph W11.1 kmh W 8.1 mph13.0 kmh 30.01 in1016.3 mb - 0.00 in0.0 mm 0.00 in0.0 mm
10:50 PM 2.8°F-16.2°C -5.7°F-20.9°C 67% 6.9 mph N11.1 kmh N 11.5 mph18.5 kmh 30.02 in1016.6 mb - 0.00 in0.0 mm 0.00 in0.0 mm
11:00 PM 2.8°F-16.2°C -5.4°F-20.8°C 68% 2.3 mph W3.7 kmh W 5.8 mph9.3 kmh 30.02 in1016.6 mb - 0.00 in0.0 mm 0.00 in0.0 mm
11:10 PM 2.9°F-16.2°C -5.9°F-21.1°C 66% 3.5 mph NW5.6 kmh NW 3.5 mph5.6 kmh 30.03 in1016.9 mb - 0.00 in0.0 mm 0.00 in0.0 mm
11:20 PM 3.1°F-16.1°C -5.7°F-20.9°C 66% 6.9 mph W11.1 kmh W 8.1 mph13.0 kmh 30.03 in1016.9 mb - 0.00 in0.0 mm 0.00 in0.0 mm
11:30 PM 3.1°F-16.1°C -6.0°F-21.1°C 65% 2.3 mph N3.7 kmh N 11.5 mph18.5 kmh 30.04 in1017.3 mb - 0.00 in0.0 mm 0.00 in0.0 mm
11:40 PM 3.4°F-15.9°C -6.7°F-21.5°C 62% 8.1 mph W13.0 kmh W 9.2 mph14.8 kmh 30.04 in1017.3 mb - 0.00 in0.0 mm 0.00 in0.0 mm
11:50 PM 3.3°F-15.9°C -6.5°F-21.4°C 63% 3.5 mph WNW5.6 kmh WNW 8.1 mph13.0 kmh 30.06 in1017.9 mb - 0.00 in0.0 mm 0.00 in0.0 mm